createdAt,value
2018-10-11T00:01:26.854Z,37.30
2018-10-11T00:03:56.152Z,41.23
2018-10-11T00:06:25.394Z,41.50
2018-10-11T00:08:54.820Z,42.27
2018-10-11T00:11:24.113Z,42.13
2018-10-11T00:13:53.754Z,41.70
2018-10-11T00:16:23.066Z,42.87
2018-10-11T00:18:52.711Z,40.13
2018-10-11T00:21:21.683Z,42.47
2018-10-11T00:23:50.763Z,39.37
2018-10-11T00:26:20.057Z,44.63
2018-10-11T00:28:49.667Z,40.70
2018-10-11T00:31:18.964Z,41.70
2018-10-11T00:33:48.254Z,39.10
2018-10-11T00:36:17.847Z,39.60
2018-10-11T00:38:47.139Z,40.77
2018-10-11T00:41:16.445Z,39.90
2018-10-11T00:43:45.882Z,39.90
2018-10-11T00:46:15.185Z,39.70
2018-10-11T00:48:44.482Z,38.37
2018-10-11T00:51:13.945Z,45.30
2018-10-11T00:53:43.235Z,39.70
2018-10-11T00:56:12.807Z,39.50
2018-10-11T00:58:42.143Z,36.73
2018-10-11T01:01:11.494Z,39.67
2018-10-11T01:03:41.074Z,39.37
2018-10-11T01:06:10.150Z,41.13
2018-10-11T01:08:39.501Z,39.20
2018-10-11T01:11:08.891Z,40.17
2018-10-11T01:13:38.314Z,39.07
2018-10-11T01:16:07.615Z,40.67
2018-10-11T01:18:37.174Z,39.70
2018-10-11T01:21:05.890Z,39.70
2018-10-11T01:23:34.905Z,38.90
2018-10-11T01:26:04.311Z,42.13
2018-10-11T01:28:33.874Z,41.83
2018-10-11T01:31:02.620Z,41.77
2018-10-11T01:33:32.194Z,37.50
2018-10-11T01:36:01.508Z,38.33
2018-10-11T01:38:30.766Z,38.43
2018-10-11T01:40:59.734Z,38.53
2018-10-11T01:43:29.372Z,39.23
2018-10-11T01:45:58.675Z,39.30
2018-10-11T01:48:29.019Z,38.02
2018-10-11T01:50:57.999Z,38.63
2018-10-11T01:53:27.409Z,36.50
2018-10-11T01:55:56.671Z,37.27
2018-10-11T01:58:25.634Z,38.77
2018-10-11T02:00:54.802Z,37.30
2018-10-11T02:03:24.183Z,44.97
2018-10-11T02:05:53.494Z,37.70
2018-10-11T02:08:22.891Z,36.73
2018-10-11T02:10:51.987Z,38.27
2018-10-11T02:13:20.936Z,40.67
2018-10-11T02:15:50.238Z,42.17
2018-10-11T02:18:19.211Z,43.43
2018-10-11T02:20:48.513Z,42.07
2018-10-11T02:23:18.146Z,43.40
2018-10-11T02:25:47.459Z,40.90
2018-10-11T02:28:17.062Z,39.63
2018-10-11T02:30:46.370Z,36.35
2018-10-11T02:33:15.663Z,44.00
2018-10-11T02:35:45.465Z,41.83
2018-10-11T02:38:15.247Z,42.40
2018-10-11T02:40:44.559Z,40.57
2018-10-11T02:43:13.902Z,42.63
2018-10-11T02:45:43.498Z,41.60
2018-10-11T02:48:12.792Z,44.80
2018-10-11T02:50:42.595Z,44.77
2018-10-11T02:53:11.874Z,44.30
2018-10-11T02:55:41.077Z,44.73
2018-10-11T02:58:21.654Z,46.27
2018-10-11T03:00:50.826Z,47.10
2018-10-11T03:03:19.718Z,48.80
2018-10-11T03:05:48.965Z,46.43
2018-10-11T03:08:17.987Z,44.13
2018-10-11T03:10:47.015Z,43.60
2018-10-11T03:13:15.970Z,48.93
2018-10-11T03:15:45.427Z,48.92
2018-10-11T03:18:14.510Z,48.40
2018-10-11T03:20:44.089Z,47.23
2018-10-11T03:23:14.382Z,46.20
2018-10-11T03:25:43.693Z,53.77
2018-10-11T03:28:13.279Z,56.70
2018-10-11T03:30:42.539Z,51.30
2018-10-11T03:33:11.930Z,51.57
2018-10-11T03:35:41.511Z,56.77
2018-10-11T03:38:10.486Z,53.77
2018-10-11T03:40:39.779Z,49.30
2018-10-11T03:43:08.806Z,54.73
2018-10-11T03:45:38.050Z,51.23
2018-10-11T03:48:07.114Z,51.33
2018-10-11T03:50:36.621Z,52.83
2018-10-11T03:53:06.054Z,50.47
2018-10-11T03:55:35.409Z,52.03
2018-10-11T03:58:04.378Z,50.53
2018-10-11T04:00:33.330Z,54.88
2018-10-11T04:03:02.648Z,50.27
2018-10-11T04:05:32.750Z,53.73
2018-10-11T04:08:02.404Z,56.07
2018-10-11T04:10:31.711Z,53.37
2018-10-11T04:13:01.299Z,58.10
2018-10-11T04:15:30.403Z,51.80
2018-10-11T04:18:00.191Z,56.87
2018-10-11T04:20:29.858Z,56.47
2018-10-11T04:22:59.122Z,59.00
2018-10-11T04:25:29.663Z,56.30
2018-10-11T04:27:59.266Z,59.03
2018-10-11T04:30:29.403Z,59.65
2018-10-11T04:32:58.706Z,65.60
2018-10-11T04:35:27.997Z,62.53
2018-10-11T04:37:57.594Z,57.93
2018-10-11T04:40:26.893Z,60.77
2018-10-11T04:42:56.307Z,58.63
2018-10-11T04:45:25.835Z,63.90
2018-10-11T04:47:55.127Z,56.57
2018-10-11T04:50:25.090Z,61.03
2018-10-11T04:52:54.649Z,61.47
2018-10-11T04:55:23.960Z,60.50
2018-10-11T04:57:53.548Z,60.03
2018-10-11T05:00:22.859Z,53.00
2018-10-11T05:02:52.203Z,56.87
2018-10-11T05:05:21.708Z,57.90
2018-10-11T05:07:51.192Z,56.70
2018-10-11T05:10:20.694Z,58.27
2018-10-11T05:12:49.671Z,58.03
2018-10-11T05:15:18.632Z,58.30
2018-10-11T05:17:47.744Z,61.90
2018-10-11T05:20:16.704Z,57.33
2018-10-11T05:22:45.663Z,58.70
2018-10-11T05:25:16.188Z,64.47
2018-10-11T05:27:45.879Z,59.45
2018-10-11T05:30:14.850Z,63.60
2018-10-11T05:32:43.359Z,64.13
2018-10-11T05:35:12.842Z,65.20
2018-10-11T05:37:42.414Z,61.47
2018-10-11T05:40:11.480Z,58.90
2018-10-11T05:42:40.734Z,65.33
2018-10-11T05:45:09.241Z,58.00
2018-10-11T05:47:38.494Z,60.50
2018-10-11T05:50:07.502Z,58.83
2018-10-11T05:52:36.954Z,59.77
2018-10-11T05:55:05.676Z,58.10
2018-10-11T05:57:34.922Z,59.33
2018-10-11T06:00:03.615Z,61.97
2018-10-11T06:02:32.871Z,59.43
2018-10-11T06:05:01.599Z,61.93
2018-10-11T06:07:30.883Z,61.70
2018-10-11T06:09:59.872Z,58.87
2018-10-11T06:12:29.839Z,55.65
2018-10-11T06:14:58.828Z,48.80
2018-10-11T06:17:27.786Z,49.20
2018-10-11T06:19:57.090Z,43.63
2018-10-11T06:22:25.779Z,40.97
2018-10-11T06:24:54.810Z,42.73
2018-10-11T06:27:24.249Z,40.77
2018-10-11T06:29:53.522Z,38.92
2018-10-11T06:32:22.556Z,40.67
2018-10-11T06:34:51.714Z,34.67
2018-10-11T06:37:20.715Z,42.97
2018-10-11T06:39:50.024Z,36.87
2018-10-11T06:42:19.063Z,37.17
2018-10-11T06:44:48.435Z,33.98
2018-10-11T06:47:17.207Z,36.93
2018-10-11T06:49:46.530Z,34.35
2018-10-11T06:52:15.845Z,35.20
2018-10-11T06:54:44.719Z,34.63
2018-10-11T06:57:14.643Z,32.30
2018-10-11T06:59:44.208Z,34.03
2018-10-11T07:02:13.791Z,35.63
2018-10-11T07:04:43.659Z,34.90
2018-10-11T07:07:13.112Z,32.73
2018-10-11T07:09:43.910Z,33.00
2018-10-11T07:12:13.207Z,33.47
2018-10-11T07:14:49.919Z,33.13
2018-10-11T07:17:19.223Z,33.40
2018-10-11T07:19:48.199Z,34.87
2018-10-11T07:22:17.509Z,31.80
2018-10-11T07:24:46.775Z,34.80
2018-10-11T07:27:16.347Z,33.53
2018-10-11T07:29:45.330Z,32.03
2018-10-11T07:32:14.387Z,32.13
2018-10-11T07:34:43.409Z,32.03
2018-10-11T07:37:13.009Z,32.20
2018-10-11T07:39:42.354Z,31.90
2018-10-11T07:42:11.666Z,34.27
2018-10-11T07:44:41.286Z,31.73
2018-10-11T07:47:10.337Z,33.37
2018-10-11T07:49:40.074Z,34.50
2018-10-11T07:52:08.994Z,33.07
2018-10-11T07:54:38.284Z,33.07
2018-10-11T07:57:07.027Z,30.47
2018-10-11T07:59:37.419Z,32.55
2018-10-11T08:02:06.154Z,33.57
2018-10-11T08:04:35.472Z,32.90
2018-10-11T08:07:04.782Z,33.28
2018-10-11T08:09:34.363Z,31.82
2018-10-11T08:12:03.826Z,31.50
2018-10-11T08:14:33.484Z,34.17
2018-10-11T08:17:03.437Z,30.80
2018-10-11T08:19:33.065Z,33.50
2018-10-11T08:22:02.323Z,30.57
2018-10-11T08:24:32.224Z,28.77
2018-10-11T08:27:01.381Z,29.77
2018-10-11T08:29:30.921Z,30.97
2018-10-11T08:32:00.290Z,29.20
2018-10-11T08:34:30.619Z,31.87
2018-10-11T08:37:00.240Z,32.07
2018-10-11T08:39:30.626Z,30.15
2018-10-11T08:42:00.207Z,28.70
2018-10-11T08:44:30.772Z,28.40
2018-10-11T08:47:00.369Z,28.80
2018-10-11T08:49:30.631Z,27.20
2018-10-11T08:51:59.927Z,27.70
2018-10-11T08:54:30.288Z,25.80
2018-10-11T08:56:59.351Z,26.17
2018-10-11T08:59:28.699Z,24.40
2018-10-11T09:01:58.422Z,28.17
2018-10-11T09:04:27.759Z,25.27
2018-10-11T09:06:57.295Z,26.77
2018-10-11T09:09:26.615Z,28.33
2018-10-11T09:11:55.903Z,26.27
2018-10-11T09:14:25.488Z,25.53
2018-10-11T09:16:54.551Z,24.73
2018-10-11T09:19:23.863Z,23.60
2018-10-11T09:21:52.903Z,21.20
2018-10-11T09:24:22.336Z,21.47
2018-10-11T09:26:51.643Z,22.57
2018-10-11T09:29:20.960Z,22.10
2018-10-11T09:31:50.463Z,22.77
2018-10-11T09:34:19.754Z,22.30
2018-10-11T09:36:49.038Z,21.87
2018-10-11T09:39:19.336Z,20.37
2018-10-11T09:41:48.629Z,20.43
2018-10-11T09:44:17.934Z,20.77
2018-10-11T09:46:47.486Z,25.50
2018-10-11T09:49:16.800Z,19.47
2018-10-11T09:51:46.540Z,19.63
2018-10-11T09:54:15.866Z,19.43
2018-10-11T09:56:45.057Z,21.23
2018-10-11T09:59:14.517Z,21.03
2018-10-11T10:01:43.577Z,21.87
2018-10-11T10:04:12.891Z,23.03
2018-10-11T10:06:42.746Z,20.00
2018-10-11T10:09:12.348Z,21.45
2018-10-11T10:11:41.830Z,20.75
2018-10-11T10:14:11.556Z,19.67
2018-10-11T10:16:40.847Z,20.80
2018-10-11T10:19:10.463Z,20.40
2018-10-11T10:21:39.982Z,19.20
2018-10-11T10:24:09.456Z,22.07
2018-10-11T10:26:38.799Z,20.48
2018-10-11T10:29:08.554Z,21.35
2018-10-11T10:31:37.867Z,20.60
2018-10-11T10:34:07.545Z,19.95
2018-10-11T10:36:36.983Z,19.92
2018-10-11T10:39:05.880Z,19.30
2018-10-11T10:41:35.338Z,20.17
2018-10-11T10:44:04.396Z,20.23
2018-10-11T10:46:33.484Z,19.40
2018-10-11T10:49:02.905Z,20.50
2018-10-11T10:51:32.740Z,21.60
2018-10-11T10:54:02.051Z,20.77
2018-10-11T10:56:31.991Z,21.60
2018-10-11T10:59:01.626Z,21.03
2018-10-11T11:01:33.182Z,19.50
2018-10-11T11:04:02.691Z,19.27
2018-10-11T11:06:31.991Z,19.90
2018-10-11T11:09:01.604Z,19.03
2018-10-11T11:11:30.927Z,19.53
2018-10-11T11:14:00.254Z,19.60
2018-10-11T11:16:31.070Z,19.35
2018-10-11T11:19:00.781Z,18.63
2018-10-11T11:21:30.713Z,19.07
2018-10-11T11:24:00.031Z,19.13
2018-10-11T11:26:30.902Z,20.08
2018-10-11T11:29:00.406Z,18.93
2018-10-11T11:31:31.090Z,19.98
2018-10-11T11:34:00.570Z,19.17
2018-10-11T11:36:30.639Z,19.67
2018-10-11T11:38:59.970Z,17.63
2018-10-11T11:41:28.932Z,19.07
2018-10-11T11:43:58.223Z,19.67
2018-10-11T11:46:27.653Z,19.87
2018-10-11T11:48:56.963Z,18.67
2018-10-11T11:51:26.259Z,19.60
2018-10-11T11:53:55.695Z,20.27
2018-10-11T11:56:25.003Z,19.20
2018-10-11T11:58:54.298Z,19.13
2018-10-11T12:01:23.445Z,19.17
2018-10-11T12:03:58.512Z,19.47
2018-10-11T12:06:27.823Z,19.83
2018-10-11T12:08:57.123Z,18.03
2018-10-11T12:11:26.434Z,19.30
2018-10-11T12:13:55.506Z,19.20
2018-10-11T12:16:24.871Z,18.30
2018-10-11T12:18:54.350Z,18.10
2018-10-11T12:21:23.689Z,18.10
2018-10-11T12:23:52.988Z,18.47
2018-10-11T12:26:22.000Z,19.50
2018-10-11T12:28:51.828Z,18.23
2018-10-11T12:31:21.678Z,19.97
2018-10-11T12:33:50.763Z,17.97
2018-10-11T12:36:20.101Z,18.00
2018-10-11T12:38:49.809Z,18.03
2018-10-11T12:41:19.222Z,17.87
2018-10-11T12:43:48.605Z,19.05
2018-10-11T12:46:17.915Z,18.60
2018-10-11T12:48:47.212Z,19.67
2018-10-11T12:51:16.850Z,20.37
2018-10-11T12:53:48.531Z,18.83
2018-10-11T12:56:16.034Z,19.87
2018-10-11T12:58:45.768Z,18.60
2018-10-11T13:01:18.845Z,18.77
2018-10-11T13:03:44.880Z,19.48
2018-10-11T13:06:14.167Z,19.13
2018-10-11T13:08:44.078Z,19.87
2018-10-11T13:11:13.371Z,18.57
2018-10-11T13:13:46.955Z,18.35
2018-10-11T13:16:12.487Z,18.80
2018-10-11T13:18:42.064Z,17.25
2018-10-11T13:21:11.050Z,18.13
2018-10-11T13:23:40.626Z,18.80
2018-10-11T13:26:10.280Z,18.83
2018-10-11T13:28:39.624Z,17.90
2018-10-11T13:31:08.744Z,17.80
2018-10-11T13:33:38.138Z,18.67
2018-10-11T13:36:07.722Z,18.70
2018-10-11T13:38:37.301Z,17.35
2018-10-11T13:41:06.659Z,17.73
2018-10-11T13:43:36.263Z,18.70
2018-10-11T13:46:05.878Z,17.10
2018-10-11T13:48:35.209Z,17.80
2018-10-11T13:51:04.850Z,17.20
2018-10-11T13:53:34.771Z,16.97
2018-10-11T13:56:04.069Z,17.80
2018-10-11T13:58:33.359Z,17.27
2018-10-11T14:01:02.943Z,16.57
2018-10-11T14:03:32.284Z,16.90
2018-10-11T14:06:01.302Z,16.70
2018-10-11T14:08:31.271Z,17.40
2018-10-11T14:11:00.648Z,17.23
2018-10-11T14:13:31.387Z,16.57
2018-10-11T14:16:01.032Z,16.60
2018-10-11T14:18:31.571Z,16.65
2018-10-11T14:21:00.952Z,15.87
2018-10-11T14:23:31.574Z,15.68
2018-10-11T14:26:00.823Z,16.63
2018-10-11T14:28:31.419Z,15.40
2018-10-11T14:31:01.365Z,15.88
2018-10-11T14:33:31.343Z,15.30
2018-10-11T14:36:01.128Z,16.07
2018-10-11T14:38:31.321Z,15.45
2018-10-11T14:41:00.619Z,16.00
2018-10-11T14:43:32.365Z,16.55
2018-10-11T14:46:02.074Z,14.23
2018-10-11T14:48:31.413Z,16.07
2018-10-11T14:51:01.139Z,16.83
2018-10-11T14:53:31.356Z,16.62
2018-10-11T14:56:00.674Z,16.00
2018-10-11T14:58:31.282Z,15.43
2018-10-11T15:01:00.601Z,16.27
2018-10-11T15:03:31.394Z,17.05
2018-10-11T15:06:01.110Z,15.23
2018-10-11T15:08:31.739Z,15.95
2018-10-11T15:11:00.964Z,17.13
2018-10-11T15:13:31.126Z,15.95
2018-10-11T15:16:00.440Z,16.20
2018-10-11T15:18:31.566Z,17.25
2018-10-11T15:21:01.144Z,15.17
2018-10-11T15:23:31.607Z,16.07
2018-10-11T15:26:00.918Z,16.50
2018-10-11T15:28:31.618Z,16.15
2018-10-11T15:31:00.694Z,15.33
2018-10-11T15:33:31.170Z,16.00
2018-10-11T15:36:00.471Z,16.97
2018-10-11T15:38:29.766Z,15.30
2018-10-11T15:40:59.397Z,16.37
2018-10-11T15:43:28.741Z,17.47
2018-10-11T15:45:58.301Z,17.27
2018-10-11T15:48:27.904Z,17.73
2018-10-11T15:50:57.320Z,19.43
2018-10-11T15:53:26.630Z,19.53
2018-10-11T15:55:56.089Z,20.87
2018-10-11T15:58:25.064Z,18.40
2018-10-11T16:00:54.557Z,18.37
2018-10-11T16:03:23.942Z,17.70
2018-10-11T16:05:52.971Z,17.90
2018-10-11T16:08:22.375Z,16.30
2018-10-11T16:10:51.704Z,16.60
2018-10-11T16:13:21.355Z,17.10
2018-10-11T16:15:50.655Z,16.47
2018-10-11T16:18:23.984Z,18.00
2018-10-11T16:20:53.310Z,17.00
2018-10-11T16:23:22.627Z,16.40
2018-10-11T16:25:51.917Z,17.23
2018-10-11T16:28:21.358Z,17.10
2018-10-11T16:30:50.653Z,26.27
2018-10-11T16:33:20.259Z,15.87
2018-10-11T16:35:49.724Z,15.73
2018-10-11T16:38:19.007Z,16.43
2018-10-11T16:40:48.422Z,16.93
2018-10-11T16:43:18.400Z,18.03
2018-10-11T16:45:47.704Z,16.40
2018-10-11T16:48:17.623Z,16.47
2018-10-11T16:50:46.981Z,16.87
2018-10-11T16:53:16.607Z,16.83
2018-10-11T16:55:45.923Z,17.87
2018-10-11T16:58:15.354Z,16.80
2018-10-11T17:00:45.151Z,18.83
2018-10-11T17:03:14.114Z,16.77
2018-10-11T17:05:43.714Z,17.40
2018-10-11T17:08:13.012Z,17.57
2018-10-11T17:10:42.348Z,17.57
2018-10-11T17:13:11.327Z,17.97
2018-10-11T17:15:40.946Z,17.93
2018-10-11T17:18:10.486Z,18.70
2018-10-11T17:20:39.790Z,17.05
2018-10-11T17:23:09.108Z,17.83
2018-10-11T17:25:38.726Z,17.53
2018-10-11T17:28:08.310Z,18.48
2018-10-11T17:30:38.284Z,17.65
2018-10-11T17:33:07.176Z,17.83
2018-10-11T17:35:36.779Z,19.03
2018-10-11T17:38:05.462Z,18.80
2018-10-11T17:40:34.790Z,19.13
2018-10-11T17:43:04.439Z,18.50
2018-10-11T17:45:33.899Z,20.27
2018-10-11T17:48:03.741Z,18.57
2018-10-11T17:50:33.285Z,18.00
2018-10-11T17:53:02.596Z,18.90
2018-10-11T17:55:31.927Z,19.67
2018-10-11T17:58:01.547Z,19.13
2018-10-11T18:00:31.927Z,19.77
2018-10-11T18:03:01.685Z,18.77
2018-10-11T18:05:31.806Z,18.27
2018-10-11T18:08:01.109Z,19.27
2018-10-11T18:10:31.958Z,19.67
2018-10-11T18:13:01.812Z,19.10
2018-10-11T18:15:31.911Z,17.80
2018-10-11T18:18:01.499Z,17.75
2018-10-11T18:20:31.957Z,18.02
2018-10-11T18:23:01.019Z,18.27
2018-10-11T18:25:31.655Z,18.60
2018-10-11T18:28:01.051Z,17.60
2018-10-11T18:30:31.966Z,19.02
2018-10-11T18:33:00.659Z,18.60
2018-10-11T18:35:29.995Z,22.80
2018-10-11T18:37:59.204Z,18.17
2018-10-11T18:40:28.690Z,17.63
2018-10-11T18:42:57.999Z,18.63
2018-10-11T18:45:27.583Z,18.77
2018-10-11T18:47:57.891Z,18.00
2018-10-11T18:50:27.359Z,17.83
2018-10-11T18:52:56.847Z,16.90
2018-10-11T18:55:26.147Z,17.97
2018-10-11T18:57:55.748Z,16.90
2018-10-11T19:00:24.855Z,18.70
2018-10-11T19:02:54.178Z,15.77
2018-10-11T19:05:23.774Z,16.48
2018-10-11T19:07:53.343Z,15.70
2018-10-11T19:10:24.762Z,15.93
2018-10-11T19:12:54.102Z,15.80
2018-10-11T19:15:24.167Z,15.93
2018-10-11T19:17:54.317Z,15.73
2018-10-11T19:20:24.932Z,15.60
2018-10-11T19:22:54.913Z,15.57
2018-10-11T19:25:31.036Z,15.83
2018-10-11T19:28:01.739Z,17.17
2018-10-11T19:30:32.023Z,15.80
2018-10-11T19:33:01.110Z,15.77
2018-10-11T19:35:31.470Z,17.23
2018-10-11T19:38:00.595Z,15.97
2018-10-11T19:40:29.887Z,15.53
2018-10-11T19:42:59.199Z,20.30
2018-10-11T19:45:28.847Z,15.13
2018-10-11T19:47:57.903Z,15.67
2018-10-11T19:50:27.564Z,15.13
2018-10-11T19:52:56.927Z,15.90
2018-10-11T19:55:26.206Z,16.90
2018-10-11T19:57:55.775Z,17.00
2018-10-11T20:00:25.082Z,16.17
2018-10-11T20:02:54.382Z,18.70
2018-10-11T20:05:24.025Z,16.77
2018-10-11T20:07:53.383Z,16.80
2018-10-11T20:10:22.955Z,17.37
2018-10-11T20:12:52.279Z,16.17
2018-10-11T20:15:21.832Z,16.10
2018-10-11T20:17:50.850Z,18.40
2018-10-11T20:20:20.168Z,16.83
2018-10-11T20:22:49.497Z,17.17
2018-10-11T20:25:20.226Z,16.17
2018-10-11T20:27:49.820Z,17.07
2018-10-11T20:30:19.191Z,15.43
2018-10-11T20:32:49.075Z,16.17
2018-10-11T20:35:17.784Z,16.30
2018-10-11T20:37:47.239Z,15.53
2018-10-11T20:40:16.858Z,17.40
2018-10-11T20:42:47.708Z,16.55
2018-10-11T20:45:17.016Z,15.20
2018-10-11T20:47:46.825Z,16.07
2018-10-11T20:50:16.126Z,17.27
2018-10-11T20:52:45.441Z,16.67
2018-10-11T20:55:15.010Z,16.57
2018-10-11T20:57:44.309Z,15.67
2018-10-11T21:00:14.179Z,16.10
2018-10-11T21:02:43.788Z,16.57
2018-10-11T21:05:13.355Z,15.13
2018-10-11T21:07:42.942Z,15.53
2018-10-11T21:10:12.241Z,16.30
2018-10-11T21:12:41.576Z,15.67
2018-10-11T21:15:11.071Z,16.70
2018-10-11T21:17:40.148Z,16.10
2018-10-11T21:20:09.570Z,16.33
2018-10-11T21:22:39.254Z,16.47
2018-10-11T21:25:08.339Z,16.83
2018-10-11T21:27:37.651Z,15.40
2018-10-11T21:30:06.697Z,16.77
2018-10-11T21:32:36.246Z,15.30
2018-10-11T21:35:04.975Z,17.33
2018-10-11T21:37:34.183Z,15.67
2018-10-11T21:40:03.548Z,16.47
2018-10-11T21:42:33.021Z,15.60
2018-10-11T21:45:02.305Z,16.67
2018-10-11T21:47:32.373Z,15.30
2018-10-11T21:50:01.682Z,16.10
2018-10-11T21:52:32.586Z,16.50
2018-10-11T21:55:02.128Z,20.40
2018-10-11T21:57:32.654Z,17.37
2018-10-11T22:00:02.066Z,15.60
2018-10-11T22:02:33.408Z,17.65
2018-10-11T22:05:02.479Z,15.53
2018-10-11T22:07:32.472Z,16.53
2018-10-11T22:10:02.103Z,17.70
2018-10-11T22:12:32.490Z,16.97
2018-10-11T22:15:02.268Z,16.80
2018-10-11T22:17:32.454Z,17.30
2018-10-11T22:20:01.744Z,18.30
2018-10-11T22:22:32.575Z,16.82
2018-10-11T22:25:01.967Z,17.00
2018-10-11T22:27:32.534Z,17.57
2018-10-11T22:30:02.127Z,16.77
2018-10-11T22:32:32.476Z,17.50
2018-10-11T22:35:02.764Z,17.67
2018-10-11T22:37:32.584Z,16.90
2018-10-11T22:40:02.227Z,18.70
2018-10-11T22:42:32.502Z,17.52
2018-10-11T22:45:01.760Z,17.65
2018-10-11T22:47:32.179Z,17.92
2018-10-11T22:50:01.472Z,19.87
2018-10-11T22:52:30.163Z,17.97
2018-10-11T22:54:59.242Z,17.87
2018-10-11T22:57:28.566Z,17.37
2018-10-11T22:59:57.852Z,17.23
2018-10-11T23:02:27.352Z,16.80
2018-10-11T23:04:56.692Z,17.97
2018-10-11T23:07:26.496Z,19.23
2018-10-11T23:09:55.516Z,18.47
2018-10-11T23:12:24.315Z,18.70
2018-10-11T23:14:53.437Z,16.87
2018-10-11T23:17:22.567Z,18.70
2018-10-11T23:19:51.859Z,19.53
2018-10-11T23:22:21.263Z,18.03
2018-10-11T23:24:50.655Z,17.10
2018-10-11T23:27:20.234Z,17.45
2018-10-11T23:29:49.828Z,17.83
2018-10-11T23:32:19.483Z,17.10
2018-10-11T23:34:48.779Z,17.63
2018-10-11T23:37:18.350Z,19.00
2018-10-11T23:39:47.651Z,17.93
2018-10-11T23:42:17.237Z,18.00
2018-10-11T23:44:46.571Z,17.20
2018-10-11T23:47:15.550Z,18.10
2018-10-11T23:49:45.031Z,18.40
2018-10-11T23:52:14.370Z,17.97
2018-10-11T23:54:43.959Z,19.20
2018-10-11T23:57:13.599Z,19.37
2018-10-11T23:59:42.886Z,19.07
